Terminal Aerodrome Forecast
Issued by NWS

Home | Current Version | Previous Version | Graphics & Text | Print | Product List | Glossary On
Versions: 1 2 3 4 5 6 7 8 9 10 11 12 13 14 15 16 17 18 19 20 21 22 23 24 25 26
680
FTUS45 KGGW 300524
TAFOLF
TAF
KOLF 300524Z 3006/3106 00000KT P6SM BKN200
     FM301500 27004KT P6SM VCSH OVC035
     FM310000 29012KT P6SM VCSH BKN060=

USA.gov is the U.S. government's official web portal to all federal, state and local government web resources and services.